Time;durP1;ratioP1;P1;durP2;ratioP2;P2;SDS_P1;SDS_P2;PMS_P1;PMS_P2;Temp;Humidity;BMP_temperature;BMP_pressure;BME280_temperature;BME280_humidity;BME280_pressure;Samples;Min_cycle;Max_cycle;Signal;HPM_P1;HPM_P2
2023/08/17 00:02:29;;;;;;;6.82;5.45;;;15.10;99.90;;;;;;5118152;27;20193;-88
2023/08/17 00:05:02;;;;;;;12.90;5.88;;;15.10;99.90;;;;;;5135889;27;20277;-88
2023/08/17 00:07:33;;;;;;;5.88;4.70;;;15.20;99.90;;;;;;5153159;27;20277;-87
2023/08/17 00:10:04;;;;;;;7.60;5.35;;;15.20;99.90;;;;;;5162231;27;20194;-89
2023/08/17 00:12:35;;;;;;;10.45;5.93;;;15.30;99.90;;;;;;5148327;27;20664;-89
2023/08/17 00:15:06;;;;;;;9.30;5.25;;;15.40;99.90;;;;;;5116133;27;20271;-89
2023/08/17 00:17:37;;;;;;;9.75;6.03;;;15.50;99.90;;;;;;5133617;27;20190;-89
2023/08/17 00:20:11;;;;;;;9.02;5.30;;;15.60;99.90;;;;;;5146366;27;20616;-89
2023/08/17 00:22:43;;;;;;;10.88;5.35;;;15.60;99.90;;;;;;5154402;27;20197;-88
2023/08/17 00:25:13;;;;;;;6.45;5.05;;;15.70;99.90;;;;;;5154922;27;20193;-88
2023/08/17 00:27:46;;;;;;;6.50;5.15;;;15.70;99.90;;;;;;5139526;27;20232;-88
2023/08/17 00:30:17;;;;;;;6.70;5.05;;;15.80;99.90;;;;;;5132836;27;20196;-88
2023/08/17 00:32:48;;;;;;;8.20;5.13;;;15.90;99.90;;;;;;5133624;27;20203;-88
2023/08/17 00:35:20;;;;;;;6.78;5.13;;;16.00;99.90;;;;;;5133954;27;20561;-87
2023/08/17 00:37:51;;;;;;;5.95;4.88;;;15.90;99.90;;;;;;5133331;27;20186;-88
2023/08/17 00:40:22;;;;;;;7.03;5.47;;;16.00;99.90;;;;;;5133860;27;20201;-88
2023/08/17 00:42:54;;;;;;;8.15;5.55;;;16.10;99.90;;;;;;5141914;27;20196;-88
2023/08/17 00:45:26;;;;;;;6.55;5.10;;;16.20;99.90;;;;;;5153930;27;20494;-86
2023/08/17 00:47:59;;;;;;;6.78;5.13;;;16.30;99.90;;;;;;5132669;27;20313;-86
2023/08/17 00:50:32;;;;;;;7.40;4.80;;;16.50;99.90;;;;;;5147392;27;20200;-86
2023/08/17 00:53:03;;;;;;;7.45;4.68;;;16.50;99.90;;;;;;5148691;27;20210;-85
2023/08/17 00:55:34;;;;;;;5.03;4.45;;;16.60;99.90;;;;;;5132202;27;20186;-85
2023/08/17 00:58:05;;;;;;;5.75;4.15;;;16.60;99.90;;;;;;5128024;27;20261;-85
2023/08/17 01:00:37;;;;;;;5.35;3.67;;;16.70;99.90;;;;;;5138136;27;20202;-85
2023/08/17 01:03:07;;;;;;;6.82;4.40;;;16.80;99.90;;;;;;5137509;27;20193;-87
2023/08/17 01:05:41;;;;;;;9.75;4.57;;;16.90;99.90;;;;;;5157633;27;20196;-85
2023/08/17 01:08:12;;;;;;;4.55;4.10;;;16.90;99.90;;;;;;5158454;27;20216;-85
2023/08/17 01:10:54;;;;;;;6.60;3.85;;;16.80;99.90;;;;;;5150412;27;20577;-86
2023/08/17 01:13:34;;;;;;;5.10;3.25;;;17.00;99.90;;;;;;5138356;27;20206;-87
2023/08/17 01:16:08;;;;;;;8.85;4.13;;;17.20;99.90;;;;;;5136413;27;20575;-87
2023/08/17 01:18:42;;;;;;;6.38;3.67;;;17.10;99.90;;;;;;5137027;27;20189;-84
2023/08/17 01:21:19;;;;;;;6.88;3.80;;;17.20;99.90;;;;;;5149989;27;20221;-87
2023/08/17 01:23:53;;;;;;;4.60;3.20;;;17.30;99.90;;;;;;5137256;27;20189;-84
2023/08/17 01:26:24;;;;;;;3.50;3.20;;;17.50;99.90;;;;;;5137148;27;20680;-86
2023/08/17 01:28:55;;;;;;;7.55;3.78;;;17.60;99.90;;;;;;5136645;27;20190;-85
2023/08/17 01:31:31;;;;;;;5.35;3.47;;;17.70;99.90;;;;;;5149517;27;20266;-86
2023/08/17 01:34:09;;;;;;;5.32;2.83;;;17.80;99.90;;;;;;5137593;27;20194;-84
2023/08/17 01:36:45;;;;;;;4.10;2.85;;;17.90;99.90;;;;;;5145858;27;20193;-86
2023/08/17 01:39:20;;;;;;;4.75;2.60;;;18.00;99.90;;;;;;5154203;27;20185;-87
2023/08/17 01:41:52;;;;;;;7.07;2.83;;;18.00;99.90;;;;;;5137269;27;20272;-85
2023/08/17 01:44:23;;;;;;;3.92;2.88;;;18.00;99.90;;;;;;5136650;27;20198;-86
2023/08/17 01:46:54;;;;;;;4.03;2.55;;;18.00;99.90;;;;;;5135977;27;20593;-87
2023/08/17 01:49:26;;;;;;;3.25;2.45;;;18.10;99.90;;;;;;5117758;27;20194;-87
2023/08/17 01:52:00;;;;;;;4.00;2.50;;;18.20;99.90;;;;;;5148321;27;20193;-88
2023/08/17 01:54:33;;;;;;;3.10;2.30;;;18.30;99.90;;;;;;5146148;27;20212;-88
2023/08/17 01:57:04;;;;;;;3.60;2.78;;;18.30;99.90;;;;;;5138592;27;20665;-87
2023/08/17 01:59:34;;;;;;;2.20;2.00;;;18.40;99.90;;;;;;5137318;27;20543;-85
2023/08/17 02:02:05;;;;;;;2.97;1.67;;;18.40;99.90;;;;;;5155255;27;20192;-85
2023/08/17 02:04:37;;;;;;;3.90;1.63;;;18.50;99.90;;;;;;5137406;27;20198;-87
2023/08/17 02:07:11;;;;;;;1.13;1.00;;;18.60;99.90;;;;;;5142423;27;20296;-91
2023/08/17 02:09:45;;;;;;;3.70;1.45;;;18.70;96.00;;;;;;5142944;27;20205;-90
2023/08/17 02:12:18;;;;;;;2.45;1.67;;;18.70;96.20;;;;;;5138910;27;20196;-92
2023/08/17 02:14:50;;;;;;;2.28;1.40;;;18.90;97.80;;;;;;5121801;27;20201;-91
2023/08/17 02:17:22;;;;;;;1.95;1.38;;;19.00;93.80;;;;;;5139180;27;20226;-89
2023/08/17 02:19:53;;;;;;;1.27;1.02;;;19.10;91.60;;;;;;5133962;27;20221;-91
2023/08/17 02:22:25;;;;;;;2.35;1.20;;;19.20;86.90;;;;;;5148804;27;20197;-92
2023/08/17 02:25:00;;;;;;;2.70;1.20;;;19.30;87.50;;;;;;5158461;27;20209;-89
2023/08/17 02:27:33;;;;;;;1.63;1.25;;;19.20;78.70;;;;;;5144433;27;20710;-89
2023/08/17 02:30:05;;;;;;;2.45;1.42;;;19.20;80.80;;;;;;5139857;27;20284;-91
2023/08/17 02:32:36;;;;;;;2.25;1.17;;;19.30;82.10;;;;;;5142601;27;20209;-89
2023/08/17 02:35:09;;;;;;;2.60;1.55;;;19.40;86.80;;;;;;5123188;27;20201;-89
2023/08/17 02:37:41;;;;;;;1.30;1.20;;;19.40;83.50;;;;;;5145275;27;20197;-92
2023/08/17 02:40:17;;;;;;;1.52;1.30;;;19.40;82.90;;;;;;5157062;27;20212;-92
2023/08/17 02:42:49;;;;;;;2.55;1.60;;;19.60;83.10;;;;;;5150700;27;20190;-89
2023/08/17 02:45:19;;;;;;;3.40;1.50;;;19.70;82.40;;;;;;5136999;27;20201;-91
2023/08/17 02:47:51;;;;;;;1.75;1.20;;;19.60;77.70;;;;;;5141223;27;20229;-90
2023/08/17 02:50:23;;;;;;;2.38;1.35;;;19.60;78.80;;;;;;5120229;27;20198;-92
2023/08/17 02:52:54;;;;;;;2.35;1.10;;;19.60;76.70;;;;;;5136959;27;20194;-91
2023/08/17 02:55:27;;;;;;;1.45;1.05;;;19.80;79.10;;;;;;5136876;27;20202;-88
2023/08/17 02:57:57;;;;;;;2.80;1.30;;;19.90;79.80;;;;;;5139782;27;20195;-91
2023/08/17 03:00:28;;;;;;;2.78;1.40;;;19.90;80.20;;;;;;5156644;27;20201;-91
2023/08/17 03:02:59;;;;;;;4.20;1.50;;;20.00;75.90;;;;;;5157229;27;20193;-90
2023/08/17 03:05:31;;;;;;;3.83;1.45;;;20.10;77.80;;;;;;5146089;27;20193;-89
2023/08/17 03:08:02;;;;;;;3.97;1.85;;;20.30;80.00;;;;;;5147673;27;20217;-88
2023/08/17 03:10:35;;;;;;;1.92;1.48;;;20.40;79.10;;;;;;5157563;27;20224;-88
2023/08/17 03:13:06;;;;;;;1.42;1.25;;;20.50;75.40;;;;;;5161771;27;20290;-87
2023/08/17 03:15:39;;;;;;;1.73;1.40;;;20.60;75.00;;;;;;5158880;27;20240;-89
2023/08/17 03:18:11;;;;;;;4.10;1.60;;;20.60;75.30;;;;;;5132708;27;20197;-89
2023/08/17 03:20:54;;;;;;;3.85;1.48;;;20.50;73.50;;;;;;5151039;27;20308;-89
2023/08/17 03:23:25;;;;;;;2.65;1.60;;;20.70;73.80;;;;;;5148213;27;20718;-88
2023/08/17 03:25:59;;;;;;;5.47;1.40;;;20.70;71.90;;;;;;5135566;27;20198;-89
2023/08/17 03:28:30;;;;;;;1.63;1.10;;;20.50;69.60;;;;;;5137345;27;20224;-92
2023/08/17 03:31:01;;;;;;;1.95;1.30;;;20.50;70.40;;;;;;5118771;27;20201;-88
2023/08/17 03:33:32;;;;;;;2.50;1.42;;;20.40;71.20;;;;;;5117232;27;20193;-89
2023/08/17 03:36:03;;;;;;;1.40;1.27;;;20.30;70.10;;;;;;5152250;27;20196;-88
2023/08/17 03:38:35;;;;;;;1.88;1.33;;;20.40;66.30;;;;;;5145000;27;20206;-89
2023/08/17 03:41:20;;;;;;;2.33;1.10;;;20.40;63.90;;;;;;5150669;27;20257;-91
2023/08/17 03:43:51;;;;;;;2.10;1.30;;;20.40;65.60;;;;;;5175306;27;21047;-88
2023/08/17 03:46:22;;;;;;;2.95;1.10;;;20.50;62.20;;;;;;5171107;27;20212;-89
2023/08/17 03:48:53;;;;;;;3.78;1.23;;;20.50;59.80;;;;;;5179412;27;20211;-89
2023/08/17 03:51:23;;;;;;;3.03;1.30;;;20.50;61.20;;;;;;5166770;27;20444;-88
2023/08/17 03:53:54;;;;;;;0.90;0.80;;;20.60;61.10;;;;;;5156859;27;20683;-90
2023/08/17 03:56:28;;;;;;;2.03;1.25;;;20.60;59.70;;;;;;5159261;27;20204;-88
2023/08/17 03:58:59;;;;;;;1.67;1.15;;;20.50;59.60;;;;;;5156955;27;20189;-87
2023/08/17 04:01:31;;;;;;;1.50;1.10;;;20.50;58.60;;;;;;5157023;27;20201;-89
2023/08/17 04:04:02;;;;;;;3.17;1.08;;;20.50;58.10;;;;;;5155819;27;20198;-89
2023/08/17 04:06:33;;;;;;;2.10;1.30;;;20.50;57.20;;;;;;5154036;27;20193;-90
2023/08/17 04:09:04;;;;;;;3.47;1.10;;;20.50;56.90;;;;;;5155901;27;20335;-90
2023/08/17 04:11:39;;;;;;;3.50;1.10;;;20.50;57.70;;;;;;5153448;27;20197;-89
2023/08/17 04:14:12;;;;;;;1.67;1.00;;;20.50;55.60;;;;;;5135932;27;20202;-89
2023/08/17 04:16:43;;;;;;;0.80;0.80;;;20.50;55.50;;;;;;5137090;27;20216;-89
2023/08/17 04:19:14;;;;;;;1.58;0.70;;;20.40;55.00;;;;;;5134701;27;20186;-90
2023/08/17 04:21:45;;;;;;;1.13;0.70;;;20.50;53.50;;;;;;5134814;27;20200;-87
2023/08/17 04:24:16;;;;;;;0.90;0.80;;;20.50;50.60;;;;;;5135335;27;20192;-86
2023/08/17 04:26:49;;;;;;;3.67;0.90;;;20.50;51.60;;;;;;5144796;27;20197;-87
2023/08/17 04:29:21;;;;;;;1.63;0.80;;;20.40;52.40;;;;;;5115766;27;20225;-89
2023/08/17 04:31:52;;;;;;;1.02;0.82;;;20.40;53.30;;;;;;5134839;27;20645;-90
2023/08/17 04:34:27;;;;;;;1.02;0.80;;;20.40;53.60;;;;;;5136002;27;20204;-88
2023/08/17 04:36:58;;;;;;;3.80;1.15;;;20.40;53.70;;;;;;5151392;27;20561;-88
2023/08/17 04:39:30;;;;;;;6.00;1.50;;;20.50;58.30;;;;;;5136407;27;20205;-88
2023/08/17 04:42:05;;;;;;;2.95;1.23;;;20.40;65.10;;;;;;5138412;27;20315;-89
2023/08/17 04:44:36;;;;;;;3.42;1.30;;;20.30;66.00;;;;;;5134599;27;20203;-89
2023/08/17 04:47:07;;;;;;;2.25;1.23;;;20.30;66.70;;;;;;5116647;28;20186;-90
2023/08/17 04:49:38;;;;;;;2.33;1.15;;;20.20;66.50;;;;;;5136844;27;20221;-87
2023/08/17 04:52:09;;;;;;;3.05;1.25;;;20.10;66.00;;;;;;5156240;27;20204;-88
2023/08/17 04:54:39;;;;;;;3.30;1.10;;;20.10;69.70;;;;;;5154360;27;20567;-89
2023/08/17 04:57:13;;;;;;;2.25;1.30;;;20.10;75.50;;;;;;5140162;27;20211;-89
2023/08/17 04:59:45;;;;;;;2.33;1.33;;;20.00;77.10;;;;;;5134438;27;20201;-90
2023/08/17 05:02:15;;;;;;;4.68;1.30;;;20.00;79.40;;;;;;5133797;27;20208;-87
2023/08/17 05:04:47;;;;;;;2.80;1.10;;;19.80;82.00;;;;;;5135193;28;20208;-88
2023/08/17 05:07:17;;;;;;;3.33;1.42;;;19.60;85.00;;;;;;5137927;27;20273;-88
2023/08/17 05:09:48;;;;;;;2.15;1.20;;;19.60;87.10;;;;;;5150503;27;20218;-90
2023/08/17 05:12:23;;;;;;;3.13;1.40;;;19.50;86.70;;;;;;5137826;28;20189;-89
2023/08/17 05:14:54;;;;;;;3.17;1.25;;;19.50;87.00;;;;;;5144404;28;20224;-88
2023/08/17 05:17:25;;;;;;;2.42;1.35;;;19.50;87.30;;;;;;5135487;28;20568;-90
2023/08/17 05:19:57;;;;;;;2.15;1.13;;;19.40;87.40;;;;;;5134909;27;20226;-92
2023/08/17 05:22:28;;;;;;;2.38;1.20;;;19.40;87.30;;;;;;5135484;28;20244;-90
2023/08/17 05:24:59;;;;;;;2.55;1.10;;;19.40;88.00;;;;;;5139316;27;20201;-90
2023/08/17 05:27:33;;;;;;;3.35;1.20;;;19.40;87.60;;;;;;5127921;27;20200;-92
2023/08/17 05:30:05;;;;;;;1.58;0.80;;;19.40;88.00;;;;;;5142652;27;20206;-90
2023/08/17 05:32:36;;;;;;;2.50;1.10;;;19.40;88.50;;;;;;5135037;28;20194;-87
2023/08/17 05:35:08;;;;;;;1.05;0.95;;;19.40;89.30;;;;;;5135090;27;20277;-90
2023/08/17 05:37:40;;;;;;;2.30;1.10;;;19.40;89.80;;;;;;5142949;27;20253;-92
2023/08/17 05:40:12;;;;;;;2.58;0.82;;;19.30;89.30;;;;;;5123487;27;20285;-92
2023/08/17 05:42:46;;;;;;;2.15;1.08;;;19.30;88.50;;;;;;5138692;27;20214;-89
2023/08/17 05:45:16;;;;;;;1.52;1.10;;;19.20;87.10;;;;;;5162209;27;20200;-89
2023/08/17 05:47:49;;;;;;;3.53;0.93;;;19.20;88.40;;;;;;5138470;27;20228;-89
2023/08/17 05:50:20;;;;;;;3.65;1.40;;;19.10;88.00;;;;;;5141322;27;20247;-91
2023/08/17 05:52:52;;;;;;;3.55;1.45;;;19.10;88.90;;;;;;5139228;27;20579;-88
2023/08/17 05:55:23;;;;;;;2.85;1.25;;;19.10;89.20;;;;;;5120841;27;20201;-87
2023/08/17 05:57:56;;;;;;;1.05;0.90;;;19.00;88.70;;;;;;5137308;27;20212;-87
2023/08/17 06:00:27;;;;;;;3.47;1.10;;;19.00;89.50;;;;;;5135944;27;20282;-86
2023/08/17 06:03:01;;;;;;;1.83;0.98;;;19.10;88.30;;;;;;5154754;27;20196;-85
2023/08/17 06:05:32;;;;;;;2.60;1.38;;;19.10;87.90;;;;;;5139083;27;20197;-83
2023/08/17 06:08:03;;;;;;;2.33;1.13;;;19.10;88.70;;;;;;5147351;27;20629;-84
2023/08/17 06:10:33;;;;;;;1.80;1.27;;;19.10;88.10;;;;;;5139294;27;20596;-83
2023/08/17 06:13:09;;;;;;;1.50;1.20;;;19.20;89.50;;;;;;5144383;27;20185;-84
2023/08/17 06:15:39;;;;;;;1.75;1.27;;;19.30;87.80;;;;;;5140523;27;20655;-84
2023/08/17 06:18:10;;;;;;;1.70;1.00;;;19.10;89.80;;;;;;5134777;27;20202;-84
2023/08/17 06:20:41;;;;;;;1.95;0.98;;;19.10;89.80;;;;;;5149796;27;20227;-83
2023/08/17 06:23:12;;;;;;;1.75;0.90;;;19.20;89.20;;;;;;5139227;27;20194;-85
2023/08/17 06:25:42;;;;;;;2.63;0.80;;;19.30;87.50;;;;;;5137376;27;20190;-85
2023/08/17 06:28:15;;;;;;;4.03;1.20;;;19.50;86.90;;;;;;5146150;27;20213;-85
2023/08/17 06:30:46;;;;;;;1.42;1.13;;;19.40;87.30;;;;;;5133923;27;20208;-85
2023/08/17 06:33:16;;;;;;;3.17;1.00;;;19.30;87.40;;;;;;5142425;27;20277;-84
2023/08/17 06:35:47;;;;;;;1.63;1.00;;;19.20;87.00;;;;;;5134635;27;20190;-83
2023/08/17 06:38:18;;;;;;;1.15;1.00;;;19.00;89.20;;;;;;5150481;27;20198;-82
2023/08/17 06:40:49;;;;;;;1.08;0.75;;;18.80;89.50;;;;;;5152253;27;20226;-83
2023/08/17 06:43:23;;;;;;;3.08;0.80;;;18.80;89.80;;;;;;5145815;27;20198;-83
2023/08/17 06:45:54;;;;;;;4.68;1.10;;;18.90;89.80;;;;;;5135180;27;20196;-83
2023/08/17 06:48:25;;;;;;;2.58;1.10;;;18.80;90.80;;;;;;5136664;27;20687;-84
2023/08/17 06:50:56;;;;;;;2.22;0.98;;;18.70;91.80;;;;;;5133625;27;20194;-84
2023/08/17 06:53:27;;;;;;;1.77;1.30;;;18.70;92.40;;;;;;5134048;27;20300;-83
2023/08/17 06:55:58;;;;;;;2.00;1.10;;;18.60;92.60;;;;;;5139261;27;20518;-85
2023/08/17 06:58:31;;;;;;;2.97;1.00;;;18.50;92.10;;;;;;5134177;27;20675;-85
2023/08/17 07:01:01;;;;;;;2.53;0.90;;;18.40;92.50;;;;;;5133576;27;20201;-85
2023/08/17 07:03:33;;;;;;;1.90;1.00;;;18.30;94.10;;;;;;5134852;27;20201;-85
2023/08/17 07:06:04;;;;;;;1.95;0.90;;;18.20;94.50;;;;;;5141545;27;20201;-85
2023/08/17 07:08:34;;;;;;;0.82;0.70;;;18.20;95.30;;;;;;5156033;27;20224;-85
2023/08/17 07:11:06;;;;;;;4.78;1.00;;;18.10;96.40;;;;;;5153615;27;20197;-84
2023/08/17 07:13:38;;;;;;;1.65;0.80;;;18.00;96.50;;;;;;5146721;27;20200;-85
2023/08/17 07:16:09;;;;;;;1.02;0.93;;;18.00;95.80;;;;;;5154858;27;20207;-85
2023/08/17 07:18:40;;;;;;;0.88;0.80;;;17.90;96.80;;;;;;5145548;27;20194;-84
2023/08/17 07:21:10;;;;;;;1.65;0.88;;;17.90;98.00;;;;;;5145008;27;20252;-85
2023/08/17 07:23:41;;;;;;;1.85;0.90;;;17.80;98.30;;;;;;5154475;27;20193;-84
2023/08/17 07:26:13;;;;;;;2.47;0.70;;;17.80;98.80;;;;;;5167926;27;20573;-84
2023/08/17 07:28:45;;;;;;;2.10;0.80;;;17.80;99.30;;;;;;5167618;27;20209;-84
2023/08/17 07:31:16;;;;;;;1.30;0.80;;;17.70;99.60;;;;;;5155042;27;20178;-85
2023/08/17 07:33:47;;;;;;;2.00;0.90;;;17.70;99.90;;;;;;5141388;27;20190;-85
2023/08/17 07:36:19;;;;;;;1.80;0.93;;;17.70;99.90;;;;;;5136023;27;20212;-84
2023/08/17 07:38:50;;;;;;;1.90;1.00;;;17.70;99.90;;;;;;5137156;27;20604;-84
2023/08/17 07:41:23;;;;;;;1.77;0.80;;;17.70;99.70;;;;;;5137343;27;20198;-84
2023/08/17 07:43:55;;;;;;;1.27;0.93;;;17.60;99.90;;;;;;5151828;27;20201;-85
2023/08/17 07:46:26;;;;;;;0.80;0.80;;;17.60;99.90;;;;;;5140068;27;20194;-84
2023/08/17 07:48:57;;;;;;;1.35;0.93;;;17.60;99.90;;;;;;5134089;27;20212;-84
2023/08/17 07:51:29;;;;;;;1.52;0.80;;;17.60;99.90;;;;;;5135073;27;20204;-84
2023/08/17 07:54:01;;;;;;;1.25;0.80;;;17.60;99.90;;;;;;5135507;27;20296;-84
2023/08/17 07:56:31;;;;;;;4.43;1.10;;;17.50;99.90;;;;;;5135572;27;20193;-85
2023/08/17 07:59:05;;;;;;;2.33;1.10;;;17.50;99.90;;;;;;5134448;27;20197;-85
2023/08/17 08:01:36;;;;;;;2.83;1.15;;;17.40;99.90;;;;;;5136283;27;20205;-83
2023/08/17 08:04:07;;;;;;;2.45;1.48;;;17.40;99.90;;;;;;5157119;27;20193;-83
2023/08/17 08:06:38;;;;;;;2.42;1.50;;;17.40;99.90;;;;;;5156700;27;20200;-84
2023/08/17 08:09:09;;;;;;;2.83;1.60;;;17.40;99.90;;;;;;5154602;27;20217;-84
2023/08/17 08:11:40;;;;;;;2.17;1.33;;;17.40;99.90;;;;;;5155017;27;20215;-81
2023/08/17 08:14:14;;;;;;;1.58;1.48;;;17.30;99.90;;;;;;5155185;27;20220;-83
2023/08/17 08:16:45;;;;;;;8.45;5.03;;;17.30;99.90;;;;;;5140014;27;20513;-83
2023/08/17 08:19:15;;;;;;;8.55;5.55;;;17.40;99.90;;;;;;5139371;27;20200;-83
2023/08/17 08:21:46;;;;;;;7.50;3.83;;;17.40;99.90;;;;;;5154468;27;20204;-84
2023/08/17 08:24:17;;;;;;;8.48;4.60;;;17.40;99.90;;;;;;5155472;27;20189;-84
2023/08/17 08:26:48;;;;;;;7.50;4.35;;;17.40;99.90;;;;;;5155725;27;20548;-83
2023/08/17 08:29:20;;;;;;;4.40;2.80;;;17.30;99.90;;;;;;5154743;27;20220;-83
2023/08/17 08:31:51;;;;;;;8.15;6.15;;;17.30;99.90;;;;;;5150286;27;20194;-83
2023/08/17 08:34:22;;;;;;;4.20;3.70;;;17.30;99.90;;;;;;5133970;27;20208;-84
2023/08/17 08:36:52;;;;;;;2.13;1.92;;;17.30;99.90;;;;;;5146066;27;20227;-84
2023/08/17 08:39:23;;;;;;;2.88;2.03;;;17.20;99.90;;;;;;5143873;27;20190;-83
2023/08/17 08:41:57;;;;;;;3.13;1.88;;;17.20;99.90;;;;;;5133093;27;20277;-83
2023/08/17 08:44:30;;;;;;;3.10;1.85;;;17.20;99.90;;;;;;5153412;27;20192;-83
2023/08/17 08:47:01;;;;;;;2.00;1.50;;;17.30;99.90;;;;;;5153626;27;20199;-83
2023/08/17 08:49:33;;;;;;;2.53;1.40;;;17.30;99.90;;;;;;5141475;27;20214;-84
2023/08/17 08:52:07;;;;;;;2.40;1.67;;;17.20;99.90;;;;;;5133269;27;20194;-83
2023/08/17 08:54:40;;;;;;;5.55;1.52;;;17.20;99.90;;;;;;5151922;27;20223;-83
2023/08/17 08:57:17;;;;;;;5.25;2.85;;;17.20;99.90;;;;;;5154404;27;20204;-84
2023/08/17 08:59:50;;;;;;;4.78;3.08;;;17.20;99.90;;;;;;5154519;27;20660;-84
2023/08/17 09:02:21;;;;;;;5.03;3.40;;;17.30;99.90;;;;;;5154968;27;20651;-83
2023/08/17 09:04:52;;;;;;;4.60;2.88;;;17.30;99.90;;;;;;5132576;27;20205;-84
2023/08/17 09:07:24;;;;;;;5.30;2.30;;;17.30;99.90;;;;;;5131508;28;20202;-83
2023/08/17 09:09:55;;;;;;;3.15;1.90;;;17.20;99.90;;;;;;5133054;27;20684;-84
2023/08/17 09:12:26;;;;;;;2.60;1.70;;;17.20;99.90;;;;;;5140337;27;20189;-84
2023/08/17 09:14:59;;;;;;;4.63;1.48;;;17.20;99.90;;;;;;5151118;27;20196;-84
2023/08/17 09:17:30;;;;;;;2.50;1.40;;;17.20;99.90;;;;;;5152241;27;20218;-84
2023/08/17 09:20:01;;;;;;;3.47;1.70;;;17.30;99.90;;;;;;5152412;27;20281;-84
2023/08/17 09:22:41;;;;;;;3.40;1.73;;;17.30;99.90;;;;;;5151075;27;20193;-83
2023/08/17 09:25:13;;;;;;;3.53;1.80;;;17.30;99.90;;;;;;5156027;27;20580;-83
2023/08/17 09:27:43;;;;;;;2.83;1.58;;;17.30;99.90;;;;;;5156054;27;20203;-84
2023/08/17 09:30:17;;;;;;;4.30;1.85;;;17.30;99.90;;;;;;5156007;27;20212;-84
2023/08/17 09:32:50;;;;;;;3.80;1.73;;;17.30;99.90;;;;;;5153342;27;20204;-85
2023/08/17 09:35:21;;;;;;;3.65;1.80;;;17.30;99.90;;;;;;5148059;27;20198;-85
2023/08/17 09:37:52;;;;;;;2.97;1.40;;;17.30;99.90;;;;;;5135468;27;20197;-85
2023/08/17 09:40:23;;;;;;;5.00;1.63;;;17.40;99.90;;;;;;5135709;27;20213;-85
2023/08/17 09:42:56;;;;;;;3.17;1.85;;;17.40;99.90;;;;;;5141887;27;20185;-85
2023/08/17 09:45:30;;;;;;;2.80;1.77;;;17.40;99.90;;;;;;5145330;27;20503;-86
2023/08/17 09:48:03;;;;;;;2.95;1.75;;;17.40;99.90;;;;;;5135233;27;20200;-86
2023/08/17 09:50:34;;;;;;;2.95;1.25;;;17.40;99.90;;;;;;5135199;27;20304;-85
2023/08/17 09:53:05;;;;;;;2.33;1.45;;;17.40;99.90;;;;;;5139230;27;20243;-85
2023/08/17 09:55:37;;;;;;;2.28;1.30;;;17.40;99.90;;;;;;5136373;27;20194;-86
2023/08/17 09:58:08;;;;;;;2.97;1.80;;;17.40;99.90;;;;;;5136883;27;20202;-85
2023/08/17 10:00:43;;;;;;;3.30;2.38;;;17.40;99.90;;;;;;5136239;27;20197;-85
2023/08/17 10:03:16;;;;;;;4.97;2.30;;;17.40;99.90;;;;;;5155505;27;20193;-85
2023/08/17 10:05:50;;;;;;;3.92;2.17;;;17.30;99.90;;;;;;5151024;27;20201;-84
2023/08/17 10:08:23;;;;;;;2.42;1.90;;;17.40;99.90;;;;;;5153526;27;20598;-84
2023/08/17 10:10:55;;;;;;;4.03;1.85;;;17.40;99.90;;;;;;5155600;27;20213;-86
2023/08/17 10:13:30;;;;;;;2.03;1.40;;;17.40;99.90;;;;;;5155657;27;20670;-86
2023/08/17 10:16:09;;;;;;;4.25;1.70;;;17.40;99.90;;;;;;5148438;27;20201;-85
2023/08/17 10:18:45;;;;;;;2.72;1.90;;;17.40;99.90;;;;;;5145388;27;20205;-84
2023/08/17 10:21:21;;;;;;;2.80;1.63;;;17.40;99.90;;;;;;5152059;27;20228;-84
2023/08/17 10:23:52;;;;;;;3.28;1.90;;;17.40;99.90;;;;;;5155518;27;20215;-85
2023/08/17 10:26:24;;;;;;;2.38;1.50;;;17.40;99.90;;;;;;5156015;27;20281;-84
2023/08/17 10:28:57;;;;;;;5.18;1.85;;;17.30;99.90;;;;;;5155882;27;20189;-85
2023/08/17 10:31:30;;;;;;;2.55;1.88;;;17.30;99.90;;;;;;5148310;27;20336;-85
2023/08/17 10:34:01;;;;;;;2.45;1.98;;;17.30;99.90;;;;;;5142941;27;20200;-84
2023/08/17 10:36:34;;;;;;;4.75;1.80;;;17.30;99.90;;;;;;5133549;27;20258;-83
2023/08/17 10:39:24;;;;;;;2.55;1.60;;;17.30;99.90;;;;;;5133307;27;20236;-83
2023/08/17 10:41:56;;;;;;;4.38;1.80;;;17.30;99.90;;;;;;5133491;27;20198;-83
2023/08/17 10:44:47;;;;;;;3.72;1.77;;;17.30;99.90;;;;;;5150422;27;20254;-84
2023/08/17 10:47:27;;;;;;;1.75;1.30;;;17.30;99.90;;;;;;5134141;27;20200;-84
2023/08/17 10:50:06;;;;;;;1.88;1.15;;;17.20;99.90;;;;;;5134390;27;20222;-83
2023/08/17 10:52:37;;;;;;;2.28;1.45;;;17.30;99.90;;;;;;5135117;27;20204;-83
2023/08/17 10:55:09;;;;;;;1.80;1.30;;;17.30;99.90;;;;;;5133698;27;20241;-82
2023/08/17 10:57:41;;;;;;;3.40;1.70;;;17.30;99.90;;;;;;5133308;27;20232;-83
2023/08/17 11:00:26;;;;;;;4.25;2.38;;;17.30;99.90;;;;;;5133329;27;20284;-84
2023/08/17 11:03:01;;;;;;;4.88;2.70;;;17.30;99.90;;;;;;5134241;27;20289;-82
2023/08/17 11:05:46;;;;;;;5.35;3.38;;;17.20;99.90;;;;;;5133643;27;20201;-83
2023/08/17 11:08:25;;;;;;;3.42;2.50;;;17.10;99.90;;;;;;5134134;27;20193;-82
2023/08/17 11:11:07;;;;;;;4.53;2.30;;;17.00;99.90;;;;;;5156510;27;20308;-81
2023/08/17 11:13:39;;;;;;;5.43;2.40;;;17.00;99.90;;;;;;5153562;27;20220;-82
2023/08/17 11:16:11;;;;;;;4.05;1.83;;;16.90;99.90;;;;;;5137369;27;20676;-83
2023/08/17 11:18:44;;;;;;;1.70;1.50;;;16.90;99.90;;;;;;5142460;27;20209;-83
2023/08/17 11:21:16;;;;;;;4.28;2.05;;;16.80;99.90;;;;;;5146876;27;20232;-83
2023/08/17 11:23:47;;;;;;;3.72;2.05;;;16.80;99.90;;;;;;5145752;27;20214;-84
2023/08/17 11:26:20;;;;;;;3.95;1.77;;;16.80;99.90;;;;;;5141078;27;20557;-83
2023/08/17 11:28:52;;;;;;;5.03;2.00;;;16.70;99.90;;;;;;5153458;27;20200;-83
2023/08/17 11:31:23;;;;;;;3.78;2.05;;;16.70;99.90;;;;;;5154387;27;20225;-82
2023/08/17 11:33:55;;;;;;;2.53;1.83;;;16.70;99.90;;;;;;5154856;27;20215;-81
2023/08/17 11:36:26;;;;;;;3.58;1.83;;;16.60;99.90;;;;;;5152345;27;20201;-81
2023/08/17 11:38:58;;;;;;;3.80;2.10;;;16.60;99.90;;;;;;5134715;27;20221;-82
2023/08/17 11:41:29;;;;;;;4.10;2.60;;;16.60;99.90;;;;;;5134786;27;20198;-82
2023/08/17 11:43:59;;;;;;;3.28;2.42;;;16.50;99.90;;;;;;5139081;27;20212;-82
2023/08/17 11:46:30;;;;;;;3.47;2.30;;;16.50;99.90;;;;;;5133321;27;20189;-83
2023/08/17 11:49:05;;;;;;;2.28;2.08;;;16.50;99.90;;;;;;5134852;27;20206;-84
2023/08/17 11:51:36;;;;;;;4.60;2.50;;;16.40;99.90;;;;;;5135695;27;20223;-84
2023/08/17 11:54:07;;;;;;;2.63;2.20;;;16.40;99.90;;;;;;5134904;27;20218;-84
2023/08/17 11:56:39;;;;;;;3.72;2.22;;;16.30;99.90;;;;;;5133534;27;20284;-84
2023/08/17 11:59:18;;;;;;;3.17;2.42;;;16.30;99.90;;;;;;5133221;27;20564;-84
2023/08/17 12:01:51;;;;;;;3.88;2.33;;;16.30;99.90;;;;;;5152187;27;20211;-84
2023/08/17 12:04:25;;;;;;;3.38;2.08;;;16.30;99.90;;;;;;5153786;27;20738;-85
2023/08/17 12:06:56;;;;;;;2.40;1.83;;;16.20;99.90;;;;;;5149204;27;20197;-83
2023/08/17 12:09:28;;;;;;;2.80;2.00;;;16.20;99.90;;;;;;5131876;27;20671;-85
2023/08/17 12:12:03;;;;;;;3.85;2.25;;;16.20;99.90;;;;;;5131480;27;20316;-84
2023/08/17 12:14:34;;;;;;;3.30;1.90;;;16.20;99.90;;;;;;5133403;27;20660;-83
2023/08/17 12:17:05;;;;;;;4.07;2.53;;;16.20;99.90;;;;;;5134056;27;20280;-84
2023/08/17 12:19:39;;;;;;;3.97;2.20;;;16.20;99.90;;;;;;5133076;27;20318;-85
2023/08/17 12:22:09;;;;;;;5.25;2.63;;;16.10;99.90;;;;;;5144148;27;20194;-85
2023/08/17 12:24:41;;;;;;;5.60;2.70;;;16.10;99.90;;;;;;5143196;27;20213;-84
2023/08/17 12:27:14;;;;;;;3.28;2.30;;;16.10;99.90;;;;;;5154279;27;20281;-85
2023/08/17 12:29:51;;;;;;;6.50;2.80;;;16.00;99.90;;;;;;5145494;27;20197;-84
2023/08/17 12:32:23;;;;;;;8.68;2.45;;;15.90;99.90;;;;;;5154005;27;20215;-83
2023/08/17 12:34:57;;;;;;;3.60;2.28;;;15.90;99.90;;;;;;5152748;27;20239;-85
2023/08/17 12:37:28;;;;;;;4.75;2.60;;;15.90;99.90;;;;;;5153779;27;20204;-85
2023/08/17 12:39:58;;;;;;;2.60;2.40;;;15.90;99.90;;;;;;5152230;27;20216;-86
2023/08/17 12:42:29;;;;;;;3.17;2.60;;;15.90;99.90;;;;;;5156568;27;20192;-85
2023/08/17 12:45:00;;;;;;;3.22;2.60;;;15.80;99.90;;;;;;5174459;27;20272;-84
2023/08/17 12:47:31;;;;;;;3.78;2.53;;;15.80;99.90;;;;;;5136744;27;20198;-85
2023/08/17 12:50:04;;;;;;;4.57;2.72;;;15.80;99.90;;;;;;5137577;27;20196;-85
2023/08/17 12:52:38;;;;;;;4.88;2.42;;;15.80;99.90;;;;;;5139956;27;20198;-86
2023/08/17 12:55:09;;;;;;;2.92;2.40;;;15.70;99.90;;;;;;5139023;27;20209;-84
2023/08/17 12:57:40;;;;;;;3.92;2.70;;;15.70;99.90;;;;;;5132305;27;20194;-86
2023/08/17 13:00:11;;;;;;;3.83;2.83;;;15.70;99.90;;;;;;5136578;27;20569;-85
2023/08/17 13:02:42;;;;;;;8.95;2.95;;;15.70;99.90;;;;;;5146233;27;20222;-84
2023/08/17 13:05:15;;;;;;;6.05;2.95;;;15.60;99.90;;;;;;5133111;27;20285;-86
2023/08/17 13:07:45;;;;;;;6.47;3.15;;;15.70;99.90;;;;;;5136177;27;20280;-86
2023/08/17 13:10:16;;;;;;;5.55;3.30;;;15.70;99.90;;;;;;5145212;27;20182;-87
2023/08/17 13:12:47;;;;;;;5.97;3.38;;;15.70;99.90;;;;;;5139837;27;20377;-87